Time;durP1;ratioP1;P1;durP2;ratioP2;P2;SDS_P1;SDS_P2;PMS_P1;PMS_P2;Temp;Humidity;BMP_temperature;BMP_pressure;BME280_temperature;BME280_humidity;BME280_pressure;Samples;Min_cycle;Max_cycle;Signal;HPM_P1;HPM_P2
2023/08/23 00:01:35;;;;;;;8.60;5.17;;;27.00;45.70;;;;;;5133211;27;20170;-55
2023/08/23 00:04:01;;;;;;;6.60;6.00;;;26.90;45.20;;;;;;5132881;27;20512;-51
2023/08/23 00:06:27;;;;;;;6.70;5.10;;;26.80;45.00;;;;;;5132652;28;20225;-54
2023/08/23 00:08:52;;;;;;;9.37;5.30;;;26.80;44.80;;;;;;5132978;28;20238;-56
2023/08/23 00:11:18;;;;;;;5.50;4.97;;;26.80;45.10;;;;;;5133113;27;20278;-51
2023/08/23 00:13:44;;;;;;;8.90;5.07;;;26.70;44.80;;;;;;5132843;28;20689;-56
2023/08/23 00:16:10;;;;;;;5.47;4.33;;;26.70;45.00;;;;;;5132586;27;20231;-52
2023/08/23 00:18:36;;;;;;;5.83;4.67;;;26.70;45.10;;;;;;5132677;28;20412;-52
2023/08/23 00:21:02;;;;;;;6.20;4.90;;;26.70;45.30;;;;;;5133023;28;20215;-55
2023/08/23 00:23:28;;;;;;;9.63;4.70;;;26.70;45.10;;;;;;5133118;27;20181;-55
2023/08/23 00:25:54;;;;;;;7.23;5.20;;;26.60;45.40;;;;;;5132627;27;20802;-51
2023/08/23 00:28:19;;;;;;;5.63;4.67;;;26.60;45.70;;;;;;5132755;27;20170;-56
2023/08/23 00:30:52;;;;;;;7.70;5.20;;;26.60;45.70;;;;;;5132941;28;20204;-56
2023/08/23 00:33:18;;;;;;;8.30;5.50;;;26.60;45.90;;;;;;5132504;27;20190;-51
2023/08/23 00:35:44;;;;;;;9.27;5.00;;;26.60;45.90;;;;;;5131006;28;20451;-53
2023/08/23 00:38:10;;;;;;;5.07;4.57;;;26.50;46.10;;;;;;5132615;27;20400;-54
2023/08/23 00:40:36;;;;;;;14.20;5.20;;;26.40;45.90;;;;;;5132637;28;20400;-52
2023/08/23 00:43:06;;;;;;;6.90;5.87;;;26.30;45.80;;;;;;5132530;27;20171;-51
2023/08/23 00:45:34;;;;;;;6.10;4.60;;;26.30;45.90;;;;;;5132144;28;20194;-56
2023/08/23 00:48:01;;;;;;;5.90;4.73;;;26.30;46.10;;;;;;5132408;27;20503;-53
2023/08/23 00:50:26;;;;;;;8.20;5.07;;;26.30;46.20;;;;;;5132465;27;20416;-50
2023/08/23 00:52:52;;;;;;;10.90;5.30;;;26.20;46.00;;;;;;5132442;28;20444;-53
2023/08/23 00:55:18;;;;;;;6.00;5.47;;;26.20;46.20;;;;;;5132248;27;20162;-54
2023/08/23 00:57:44;;;;;;;6.47;4.90;;;26.20;46.60;;;;;;5132707;27;20181;-51
2023/08/23 01:00:10;;;;;;;6.20;5.20;;;26.20;46.70;;;;;;5132390;27;20219;-51
2023/08/23 01:02:36;;;;;;;6.90;5.63;;;26.30;46.70;;;;;;5132269;28;20731;-56
2023/08/23 01:05:02;;;;;;;8.80;6.07;;;26.20;46.60;;;;;;5133032;27;20403;-55
2023/08/23 01:07:49;;;;;;;7.10;5.33;;;26.20;46.50;;;;;;5136176;27;20171;-52
2023/08/23 01:10:42;;;;;;;5.50;5.00;;;26.30;46.50;;;;;;5136083;27;20754;-56
2023/08/23 01:13:12;;;;;;;7.30;6.03;;;26.30;46.60;;;;;;5136268;27;20847;-56
2023/08/23 01:15:38;;;;;;;7.53;5.03;;;26.30;46.80;;;;;;5136148;27;20476;-52
2023/08/23 01:18:06;;;;;;;5.40;4.90;;;26.30;47.10;;;;;;5135911;27;20414;-52
2023/08/23 01:20:33;;;;;;;7.43;5.17;;;26.30;47.10;;;;;;5135886;27;20396;-53
2023/08/23 01:23:12;;;;;;;6.73;5.30;;;26.30;46.80;;;;;;5135836;27;20496;-54
2023/08/23 01:25:49;;;;;;;6.37;5.70;;;26.30;46.70;;;;;;5135434;27;20428;-53
2023/08/23 01:28:15;;;;;;;5.97;5.30;;;26.20;47.00;;;;;;5135799;27;20475;-53
2023/08/23 01:30:41;;;;;;;7.43;5.23;;;26.10;47.00;;;;;;5135835;27;20482;-51
2023/08/23 01:33:13;;;;;;;7.60;5.60;;;26.10;46.90;;;;;;5134377;27;21143;-53
2023/08/23 01:35:51;;;;;;;8.83;6.47;;;26.10;47.00;;;;;;5135152;27;20531;-52
2023/08/23 01:38:18;;;;;;;6.83;6.03;;;26.10;47.10;;;;;;5135582;27;20400;-52
2023/08/23 01:40:44;;;;;;;7.00;5.40;;;26.00;47.10;;;;;;5135831;27;20751;-56
2023/08/23 01:43:10;;;;;;;9.00;6.47;;;26.00;47.20;;;;;;5135484;27;20401;-52
2023/08/23 01:45:36;;;;;;;6.70;6.07;;;26.00;47.30;;;;;;5135090;27;20428;-56
2023/08/23 01:48:02;;;;;;;8.57;6.60;;;26.00;47.20;;;;;;5135364;27;20265;-52
2023/08/23 01:50:28;;;;;;;8.10;6.10;;;26.00;47.10;;;;;;5135230;27;20174;-52
2023/08/23 01:52:53;;;;;;;7.63;5.20;;;25.90;46.90;;;;;;5135513;27;20447;-55
2023/08/23 01:55:20;;;;;;;7.03;6.43;;;25.90;46.80;;;;;;5135032;27;20909;-54
2023/08/23 01:57:46;;;;;;;10.80;7.07;;;25.90;46.80;;;;;;5135444;27;20171;-53
2023/08/23 02:00:13;;;;;;;9.20;6.80;;;25.90;46.90;;;;;;5135088;27;20400;-52
2023/08/23 02:02:39;;;;;;;9.20;6.40;;;25.90;46.80;;;;;;5135068;27;20449;-53
2023/08/23 02:05:05;;;;;;;9.00;5.63;;;25.90;46.90;;;;;;5134729;27;20400;-52
2023/08/23 02:07:31;;;;;;;7.70;6.90;;;25.80;46.90;;;;;;5134994;27;20632;-52
2023/08/23 02:09:56;;;;;;;8.97;6.57;;;25.80;47.00;;;;;;5134976;27;20415;-52
2023/08/23 02:12:22;;;;;;;8.60;5.93;;;25.80;47.10;;;;;;5134879;27;20192;-55
2023/08/23 02:14:48;;;;;;;7.43;5.80;;;25.80;47.10;;;;;;5134454;27;20203;-52
2023/08/23 02:17:14;;;;;;;5.93;5.43;;;25.80;47.20;;;;;;5133762;27;20193;-52
2023/08/23 02:19:40;;;;;;;8.00;5.73;;;25.90;47.40;;;;;;5134768;27;20167;-54
2023/08/23 02:22:05;;;;;;;6.87;6.17;;;25.80;47.30;;;;;;5134706;27;20227;-54
2023/08/23 02:24:31;;;;;;;5.97;5.23;;;25.80;47.40;;;;;;5134477;27;20173;-50
2023/08/23 02:26:57;;;;;;;7.23;6.10;;;25.80;47.40;;;;;;5134626;27;20277;-55
2023/08/23 02:29:23;;;;;;;7.60;6.87;;;25.80;47.30;;;;;;5134508;27;20928;-56
2023/08/23 02:31:49;;;;;;;8.80;6.33;;;25.70;47.60;;;;;;5134510;27;20190;-53
2023/08/23 02:34:14;;;;;;;7.27;6.57;;;25.70;47.50;;;;;;5134005;27;20279;-53
2023/08/23 02:36:40;;;;;;;12.27;7.17;;;25.60;47.60;;;;;;5134573;27;20199;-51
2023/08/23 02:39:06;;;;;;;10.53;7.10;;;25.60;47.50;;;;;;5134317;27;20408;-52
2023/08/23 02:41:32;;;;;;;11.43;7.43;;;25.60;47.80;;;;;;5134310;27;20174;-54
2023/08/23 02:43:58;;;;;;;9.50;7.23;;;25.60;47.60;;;;;;5134158;27;20400;-53
2023/08/23 02:46:23;;;;;;;7.70;6.30;;;25.60;47.80;;;;;;5133950;27;20186;-55
2023/08/23 02:48:49;;;;;;;11.30;7.47;;;25.60;47.90;;;;;;5134163;27;20249;-52
2023/08/23 02:51:15;;;;;;;7.63;6.83;;;25.60;48.00;;;;;;5134168;27;20179;-52
2023/08/23 02:53:41;;;;;;;9.17;7.67;;;25.50;48.00;;;;;;5134356;27;20186;-53
2023/08/23 02:56:07;;;;;;;10.70;7.80;;;25.50;48.00;;;;;;5133842;27;20597;-54
2023/08/23 02:58:32;;;;;;;8.70;7.90;;;25.50;47.90;;;;;;5133901;27;20437;-51
2023/08/23 03:00:59;;;;;;;7.47;6.77;;;25.50;48.10;;;;;;5133957;27;20167;-55
2023/08/23 03:03:25;;;;;;;8.17;7.37;;;25.50;48.20;;;;;;5133859;27;20178;-54
2023/08/23 03:05:55;;;;;;;8.60;7.90;;;25.50;48.20;;;;;;5133542;27;20424;-52
2023/08/23 03:08:22;;;;;;;10.43;7.43;;;25.50;48.20;;;;;;5134020;27;20174;-52
2023/08/23 03:10:47;;;;;;;9.17;7.03;;;25.50;48.20;;;;;;5133816;27;20423;-56
2023/08/23 03:13:13;;;;;;;8.07;7.20;;;25.50;48.20;;;;;;5133574;27;20530;-52
2023/08/23 03:15:39;;;;;;;6.93;6.23;;;25.50;48.30;;;;;;5133340;27;20424;-55
2023/08/23 03:18:05;;;;;;;10.57;7.20;;;25.50;48.30;;;;;;5133548;27;20202;-54
2023/08/23 03:20:31;;;;;;;7.53;6.93;;;25.50;48.30;;;;;;5133728;27;20423;-55
2023/08/23 03:22:58;;;;;;;9.03;6.80;;;25.50;48.20;;;;;;5133638;27;20944;-53
2023/08/23 03:25:23;;;;;;;7.90;7.20;;;25.50;48.10;;;;;;5133494;27;20194;-53
2023/08/23 03:27:52;;;;;;;13.60;7.27;;;25.40;48.10;;;;;;5133207;27;20766;-54
2023/08/23 03:30:18;;;;;;;7.87;7.07;;;25.40;48.00;;;;;;5133359;27;20227;-54
2023/08/23 03:32:44;;;;;;;7.27;6.57;;;25.30;47.90;;;;;;5133571;27;20461;-53
2023/08/23 03:35:10;;;;;;;8.50;6.83;;;25.30;47.90;;;;;;5132928;27;20819;-53
2023/08/23 03:37:36;;;;;;;8.00;6.80;;;25.30;48.60;;;;;;5133344;27;20396;-54
2023/08/23 03:40:02;;;;;;;12.43;7.67;;;25.20;47.80;;;;;;5133341;27;20400;-51
2023/08/23 03:42:28;;;;;;;10.33;6.70;;;25.20;47.90;;;;;;5133241;27;20207;-54
2023/08/23 03:44:54;;;;;;;10.63;7.10;;;25.20;47.90;;;;;;5132912;27;20396;-56
2023/08/23 03:47:20;;;;;;;10.23;6.83;;;25.10;48.10;;;;;;5133214;27;20498;-52
2023/08/23 03:49:46;;;;;;;7.20;6.53;;;25.10;48.00;;;;;;5133315;27;20179;-56
2023/08/23 03:52:12;;;;;;;7.73;6.93;;;25.00;48.00;;;;;;5133143;27;20303;-51
2023/08/23 03:54:38;;;;;;;7.70;6.60;;;25.00;48.10;;;;;;5132793;27;20522;-56
2023/08/23 03:57:04;;;;;;;7.47;6.77;;;25.00;48.20;;;;;;5133273;27;20667;-52
2023/08/23 03:59:30;;;;;;;7.60;6.90;;;24.90;48.20;;;;;;5132942;27;20173;-52
2023/08/23 04:01:55;;;;;;;10.07;7.43;;;24.90;48.10;;;;;;5132969;27;20166;-54
2023/08/23 04:04:21;;;;;;;8.37;7.00;;;24.80;48.00;;;;;;5132959;27;20228;-53
2023/08/23 04:06:47;;;;;;;7.60;6.90;;;24.80;48.00;;;;;;5132785;28;20198;-51
2023/08/23 04:09:13;;;;;;;8.37;6.90;;;24.80;48.20;;;;;;5132923;27;20170;-54
2023/08/23 04:11:39;;;;;;;10.17;7.80;;;24.70;48.30;;;;;;5132859;27;20223;-52
2023/08/23 04:14:05;;;;;;;10.97;7.37;;;24.70;48.50;;;;;;5132517;27;20444;-53
2023/08/23 04:16:30;;;;;;;7.80;7.03;;;24.70;48.20;;;;;;5132913;27;20941;-58
2023/08/23 04:18:56;;;;;;;9.70;7.50;;;24.70;48.30;;;;;;5132851;27;20396;-52
2023/08/23 04:21:22;;;;;;;7.13;6.07;;;24.60;48.90;;;;;;5132778;28;20167;-53
2023/08/23 04:23:48;;;;;;;7.60;6.90;;;24.60;48.30;;;;;;5132729;27;20219;-56
2023/08/23 04:26:14;;;;;;;12.33;7.33;;;24.60;48.40;;;;;;5132423;27;20198;-55
2023/08/23 04:28:40;;;;;;;8.13;7.33;;;24.60;48.40;;;;;;5132630;28;20411;-51
2023/08/23 04:31:06;;;;;;;16.90;8.60;;;24.60;48.60;;;;;;5132995;27;20179;-56
2023/08/23 04:33:34;;;;;;;12.70;8.50;;;24.60;48.80;;;;;;5132940;27;20721;-53
2023/08/23 04:36:02;;;;;;;17.20;8.57;;;24.60;48.60;;;;;;5132338;27;20209;-53
2023/08/23 04:38:27;;;;;;;11.73;8.93;;;24.60;48.70;;;;;;5132562;27;20499;-52
2023/08/23 04:41:04;;;;;;;10.07;7.43;;;24.50;48.70;;;;;;5135015;27;20475;-55
2023/08/23 04:43:30;;;;;;;16.00;8.40;;;24.50;48.90;;;;;;5136683;27;20639;-55
2023/08/23 04:45:56;;;;;;;16.70;9.17;;;24.50;49.00;;;;;;5136349;27;20463;-53
2023/08/23 04:48:23;;;;;;;14.70;8.60;;;24.50;49.10;;;;;;5136571;27;20396;-54
2023/08/23 04:50:53;;;;;;;13.30;9.90;;;24.50;49.00;;;;;;5136456;27;20464;-52
2023/08/23 04:53:19;;;;;;;18.00;9.23;;;24.50;48.80;;;;;;5136400;27;20523;-55
2023/08/23 04:55:45;;;;;;;13.17;9.40;;;24.50;48.90;;;;;;5135885;27;20504;-57
2023/08/23 04:58:11;;;;;;;16.40;9.60;;;24.50;49.00;;;;;;5136310;27;20396;-52
2023/08/23 05:00:37;;;;;;;11.50;8.50;;;24.60;49.10;;;;;;5135120;27;20404;-53
2023/08/23 05:03:04;;;;;;;16.33;9.40;;;24.60;49.10;;;;;;5136309;27;20407;-56
2023/08/23 05:05:30;;;;;;;10.90;9.43;;;24.70;49.20;;;;;;5135953;27;20190;-52
2023/08/23 05:07:56;;;;;;;14.20;10.03;;;24.70;49.10;;;;;;5136114;27;20404;-53
2023/08/23 05:10:21;;;;;;;20.17;11.20;;;24.80;49.70;;;;;;5135937;27;20415;-53
2023/08/23 05:12:47;;;;;;;17.23;10.23;;;24.80;49.00;;;;;;5136038;27;20170;-57
2023/08/23 05:15:13;;;;;;;16.20;10.80;;;24.90;49.10;;;;;;5135745;27;20166;-51
2023/08/23 05:17:39;;;;;;;15.63;10.30;;;24.90;49.20;;;;;;5135949;27;20159;-57
2023/08/23 05:20:05;;;;;;;23.87;10.50;;;25.00;49.20;;;;;;5135908;27;20190;-52
2023/08/23 05:22:31;;;;;;;16.30;9.47;;;25.00;49.10;;;;;;5135829;27;20202;-51
2023/08/23 05:24:57;;;;;;;11.53;9.63;;;25.00;49.10;;;;;;5135456;27;20435;-57
2023/08/23 05:27:23;;;;;;;18.47;9.50;;;25.10;48.90;;;;;;5135998;27;20220;-53
2023/08/23 05:29:50;;;;;;;11.97;9.37;;;25.20;48.80;;;;;;5135748;27;20167;-58
2023/08/23 05:32:16;;;;;;;13.27;9.30;;;25.10;48.20;;;;;;5135739;27;20205;-52
2023/08/23 05:34:41;;;;;;;20.07;9.00;;;25.20;48.50;;;;;;5135168;27;20491;-56
2023/08/23 05:37:07;;;;;;;14.37;9.30;;;25.30;49.00;;;;;;5135543;27;20416;-53
2023/08/23 05:39:33;;;;;;;10.53;8.77;;;25.30;49.00;;;;;;5135382;27;20411;-53
2023/08/23 05:41:59;;;;;;;18.60;8.80;;;25.40;48.80;;;;;;5135784;27;20167;-54
2023/08/23 05:44:25;;;;;;;19.93;8.93;;;25.40;48.20;;;;;;5135293;27;20629;-55
2023/08/23 05:46:51;;;;;;;12.80;9.67;;;25.40;48.20;;;;;;5135353;27;20194;-52
2023/08/23 05:49:16;;;;;;;13.23;9.47;;;25.50;48.70;;;;;;5135265;27;20175;-52
2023/08/23 05:51:42;;;;;;;14.47;9.60;;;25.60;48.80;;;;;;5134119;27;20223;-54
2023/08/23 05:54:08;;;;;;;16.47;9.30;;;25.70;48.60;;;;;;5134943;27;20698;-52
2023/08/23 05:56:34;;;;;;;21.43;10.27;;;25.80;48.80;;;;;;5135219;27;20182;-55
2023/08/23 05:59:00;;;;;;;14.80;7.87;;;25.90;48.30;;;;;;5135249;27;20159;-51
2023/08/23 06:01:25;;;;;;;20.07;8.60;;;25.90;48.20;;;;;;5135245;27;20400;-53
2023/08/23 06:03:51;;;;;;;12.60;8.37;;;26.00;48.60;;;;;;5135124;27;20578;-57
2023/08/23 06:06:17;;;;;;;13.90;9.40;;;26.00;48.30;;;;;;5134974;27;20548;-52
2023/08/23 06:08:43;;;;;;;14.20;8.83;;;26.20;48.60;;;;;;5134946;27;20167;-52
2023/08/23 06:11:09;;;;;;;12.00;9.70;;;26.20;48.20;;;;;;5134993;27;20404;-55
2023/08/23 06:13:35;;;;;;;16.80;9.43;;;26.30;48.40;;;;;;5134821;27;20202;-51
2023/08/23 06:16:00;;;;;;;9.00;8.10;;;26.30;48.30;;;;;;5134899;27;20210;-55
2023/08/23 06:18:26;;;;;;;8.70;7.80;;;26.40;47.90;;;;;;5135059;27;20175;-54
2023/08/23 06:20:52;;;;;;;12.60;8.13;;;26.40;47.80;;;;;;5135087;27;20189;-51
2023/08/23 06:23:18;;;;;;;12.33;8.67;;;26.50;47.50;;;;;;5134888;27;20185;-56
2023/08/23 06:25:44;;;;;;;11.70;9.47;;;26.60;46.30;;;;;;5134413;27;20729;-56
2023/08/23 06:28:09;;;;;;;8.23;6.63;;;26.60;45.70;;;;;;5134599;27;20266;-51
2023/08/23 06:30:36;;;;;;;14.90;8.60;;;26.60;45.80;;;;;;5134845;27;20253;-58
2023/08/23 06:33:04;;;;;;;9.53;8.60;;;26.70;46.20;;;;;;5134500;27;20444;-53
2023/08/23 06:35:29;;;;;;;10.20;9.13;;;26.80;45.70;;;;;;5134018;27;20965;-55
2023/08/23 06:37:55;;;;;;;9.27;7.60;;;26.80;45.60;;;;;;5134557;27;20392;-52
2023/08/23 06:40:21;;;;;;;14.10;9.17;;;26.90;44.60;;;;;;5134371;27;20632;-52
2023/08/23 06:42:47;;;;;;;8.33;7.53;;;26.90;44.10;;;;;;5134324;27;20306;-53
2023/08/23 06:45:13;;;;;;;9.10;8.10;;;26.90;44.00;;;;;;5133975;27;20173;-55
2023/08/23 06:47:39;;;;;;;13.93;8.70;;;27.00;44.80;;;;;;5134133;27;20163;-53
2023/08/23 06:50:06;;;;;;;13.40;8.43;;;27.00;43.40;;;;;;5134301;27;20167;-51
2023/08/23 06:52:32;;;;;;;10.77;8.73;;;27.00;44.40;;;;;;5133982;27;20408;-55
2023/08/23 06:54:58;;;;;;;9.80;8.70;;;27.00;45.20;;;;;;5133824;27;20956;-52
2023/08/23 06:57:28;;;;;;;12.67;9.30;;;27.20;45.10;;;;;;5134213;27;20423;-56
2023/08/23 06:59:56;;;;;;;11.33;8.27;;;27.20;44.70;;;;;;5134147;27;20408;-55
2023/08/23 07:02:22;;;;;;;14.30;9.50;;;27.30;43.60;;;;;;5133710;27;20400;-51
2023/08/23 07:04:50;;;;;;;11.37;9.77;;;27.30;43.30;;;;;;5133588;27;20408;-52
2023/08/23 07:07:17;;;;;;;8.20;7.37;;;27.30;42.60;;;;;;5133661;27;20489;-57
2023/08/23 07:09:43;;;;;;;13.10;7.50;;;27.30;43.10;;;;;;5133893;27;20784;-52
2023/08/23 07:12:08;;;;;;;8.77;7.87;;;27.20;42.70;;;;;;5134031;27;20400;-54
2023/08/23 07:14:34;;;;;;;14.73;8.80;;;27.30;44.10;;;;;;5133403;27;20659;-53
2023/08/23 07:17:00;;;;;;;10.67;7.30;;;27.50;44.30;;;;;;5133862;27;20183;-53
2023/08/23 07:19:26;;;;;;;10.10;7.77;;;27.60;42.80;;;;;;5133483;27;20670;-56
2023/08/23 07:21:52;;;;;;;10.03;8.30;;;27.60;42.40;;;;;;5133810;27;20166;-52
2023/08/23 07:24:17;;;;;;;9.13;7.07;;;27.70;43.10;;;;;;5133296;27;20179;-52
2023/08/23 07:26:43;;;;;;;10.00;7.30;;;27.80;43.00;;;;;;5133482;27;20269;-55
2023/08/23 07:29:11;;;;;;;9.40;7.60;;;27.80;42.90;;;;;;5133756;27;20182;-56
2023/08/23 07:31:37;;;;;;;8.97;7.60;;;27.90;41.70;;;;;;5133417;27;20179;-51
2023/08/23 07:34:03;;;;;;;11.10;7.47;;;27.80;41.60;;;;;;5133080;27;20444;-54
2023/08/23 07:36:29;;;;;;;8.43;7.20;;;27.90;41.50;;;;;;5133125;27;20278;-57
2023/08/23 07:38:55;;;;;;;11.33;7.23;;;27.90;40.50;;;;;;5133363;27;20288;-50
2023/08/23 07:41:20;;;;;;;7.40;5.93;;;28.00;43.10;;;;;;5133561;27;20171;-56
2023/08/23 07:43:46;;;;;;;9.57;6.97;;;28.10;43.10;;;;;;5133196;27;20513;-52
2023/08/23 07:46:12;;;;;;;11.13;7.10;;;28.20;41.40;;;;;;5132862;27;20694;-52
2023/08/23 07:48:40;;;;;;;8.87;6.97;;;28.20;40.80;;;;;;5133103;27;20164;-55
2023/08/23 07:51:07;;;;;;;11.50;6.40;;;28.20;41.20;;;;;;5133386;27;20273;-51
2023/08/23 07:53:33;;;;;;;10.23;6.93;;;28.30;40.80;;;;;;5133001;27;20491;-53
2023/08/23 07:55:59;;;;;;;9.47;6.80;;;28.40;40.40;;;;;;5132843;27;20432;-54
2023/08/23 07:58:25;;;;;;;8.20;6.37;;;28.40;40.00;;;;;;5133327;27;20451;-51
2023/08/23 08:00:51;;;;;;;8.27;5.70;;;28.40;39.10;;;;;;5132987;27;20996;-52
2023/08/23 08:03:17;;;;;;;7.07;6.10;;;28.50;38.20;;;;;;5133113;27;20166;-55
2023/08/23 08:05:43;;;;;;;7.87;5.33;;;28.50;38.20;;;;;;5132594;27;20511;-52
2023/08/23 08:08:09;;;;;;;7.93;5.90;;;28.60;41.10;;;;;;5132863;27;20408;-53
2023/08/23 08:10:35;;;;;;;7.37;5.20;;;28.70;40.00;;;;;;5132908;27;20176;-55
2023/08/23 08:13:01;;;;;;;7.03;5.37;;;28.80;39.30;;;;;;5132732;27;20451;-51
2023/08/23 08:15:27;;;;;;;6.50;5.27;;;28.90;40.50;;;;;;5134388;27;20423;-55
2023/08/23 08:17:53;;;;;;;7.13;5.97;;;29.00;41.50;;;;;;5137119;27;20632;-52
2023/08/23 08:20:20;;;;;;;9.10;5.70;;;29.00;39.50;;;;;;5137015;27;20405;-50
2023/08/23 08:22:46;;;;;;;8.27;5.70;;;29.10;39.60;;;;;;5137068;27;20412;-52
2023/08/23 08:25:12;;;;;;;7.20;5.20;;;29.20;39.70;;;;;;5136859;27;20547;-52
2023/08/23 08:27:38;;;;;;;12.00;5.30;;;29.30;39.90;;;;;;5136911;27;20871;-54
2023/08/23 08:30:05;;;;;;;5.47;4.87;;;29.30;39.00;;;;;;5136999;27;20481;-51
2023/08/23 08:32:31;;;;;;;7.43;4.50;;;29.30;38.30;;;;;;5136737;27;20396;-52
2023/08/23 08:34:57;;;;;;;8.80;5.00;;;29.40;38.20;;;;;;5136375;27;20455;-57
2023/08/23 08:37:23;;;;;;;9.53;5.00;;;29.40;37.60;;;;;;5136762;27;20198;-52
2023/08/23 08:39:49;;;;;;;7.10;5.83;;;29.50;38.50;;;;;;5136746;27;20229;-51
2023/08/23 08:42:15;;;;;;;8.47;4.90;;;29.50;39.20;;;;;;5136958;27;20404;-57
2023/08/23 08:44:42;;;;;;;7.90;4.90;;;29.60;36.60;;;;;;5136421;27;20997;-51
2023/08/23 08:47:08;;;;;;;6.23;4.83;;;29.60;37.70;;;;;;5136558;27;20463;-55
2023/08/23 08:49:34;;;;;;;7.20;4.43;;;29.60;37.90;;;;;;5136464;27;20438;-51
2023/08/23 08:52:04;;;;;;;9.70;4.67;;;29.70;38.40;;;;;;5136550;27;20166;-53
2023/08/23 08:54:34;;;;;;;5.57;4.97;;;29.80;38.70;;;;;;5136349;27;20226;-52
2023/08/23 08:57:01;;;;;;;6.87;4.90;;;29.90;37.70;;;;;;5136692;27;20409;-51
2023/08/23 08:59:27;;;;;;;7.23;3.90;;;29.90;36.80;;;;;;5136538;27;20404;-53
2023/08/23 09:02:00;;;;;;;5.57;5.07;;;29.90;37.80;;;;;;5136343;27;20400;-55
2023/08/23 09:04:26;;;;;;;6.53;5.20;;;29.90;38.00;;;;;;5136029;27;20404;-51
2023/08/23 09:06:53;;;;;;;10.77;5.67;;;30.00;36.80;;;;;;5136149;27;20427;-54
2023/08/23 09:09:20;;;;;;;6.77;5.10;;;30.00;37.90;;;;;;5136069;27;20420;-52
2023/08/23 09:11:46;;;;;;;9.93;4.47;;;30.00;37.70;;;;;;5136078;27;20904;-52
2023/08/23 09:14:16;;;;;;;6.03;4.90;;;30.10;36.90;;;;;;5135750;27;20446;-51
2023/08/23 09:16:43;;;;;;;5.83;4.83;;;30.10;36.70;;;;;;5134629;27;20511;-54
2023/08/23 09:19:12;;;;;;;6.90;4.90;;;30.10;38.40;;;;;;5135756;27;20448;-51
2023/08/23 09:21:42;;;;;;;5.80;5.20;;;30.20;38.00;;;;;;5136104;27;20413;-57
2023/08/23 09:24:09;;;;;;;6.97;5.50;;;30.30;36.30;;;;;;5135995;27;20411;-51
2023/08/23 09:26:35;;;;;;;6.40;4.70;;;30.30;37.20;;;;;;5135354;27;20477;-55
2023/08/23 09:29:04;;;;;;;5.00;4.10;;;30.30;37.50;;;;;;5135739;27;20443;-53
2023/08/23 09:31:30;;;;;;;9.17;4.37;;;30.50;38.20;;;;;;5136021;27;20412;-52
2023/08/23 09:33:56;;;;;;;6.13;4.03;;;30.50;38.50;;;;;;5135525;27;20448;-56
2023/08/23 09:36:29;;;;;;;6.50;4.30;;;30.60;37.40;;;;;;5135272;27;20488;-52
2023/08/23 09:39:00;;;;;;;8.10;5.40;;;30.60;37.40;;;;;;5135486;27;20910;-52
2023/08/23 09:41:26;;;;;;;9.47;5.57;;;30.70;36.40;;;;;;5135615;27;20380;-55
2023/08/23 09:43:56;;;;;;;6.07;5.00;;;30.70;35.90;;;;;;5135399;27;20400;-53
2023/08/23 09:46:26;;;;;;;8.03;5.27;;;30.80;35.90;;;;;;5135147;27;20789;-55
2023/08/23 09:48:53;;;;;;;10.70;5.07;;;30.80;35.60;;;;;;5135278;27;20930;-53
2023/08/23 09:51:24;;;;;;;6.13;4.80;;;30.80;35.90;;;;;;5135205;27;20410;-53
2023/08/23 09:53:54;;;;;;;6.37;3.90;;;30.80;35.00;;;;;;5135067;27;20440;-55
2023/08/23 09:56:21;;;;;;;8.80;5.67;;;30.90;35.50;;;;;;5134812;27;20424;-57
2023/08/23 09:58:48;;;;;;;5.57;4.80;;;30.90;34.30;;;;;;5135199;27;20488;-57
2023/08/23 10:01:15;;;;;;;7.33;4.43;;;30.90;32.80;;;;;;5135104;27;20408;-57
2023/08/23 10:03:42;;;;;;;6.40;4.53;;;30.80;34.50;;;;;;5135090;27;20985;-52
2023/08/23 10:06:09;;;;;;;14.00;4.90;;;30.80;34.90;;;;;;5134642;27;20925;-58
2023/08/23 10:08:39;;;;;;;7.50;4.40;;;30.90;35.50;;;;;;5135017;27;20400;-57
2023/08/23 10:11:05;;;;;;;8.20;5.40;;;31.00;36.50;;;;;;5134986;27;20411;-52
2023/08/23 10:13:33;;;;;;;6.03;4.90;;;31.10;37.30;;;;;;5134800;27;20447;-53
2023/08/23 10:16:01;;;;;;;6.27;5.60;;;31.20;36.50;;;;;;5134880;27;20521;-56
2023/08/23 10:18:31;;;;;;;7.47;5.83;;;31.20;36.80;;;;;;5134799;27;20800;-53
2023/08/23 10:20:57;;;;;;;5.60;4.53;;;31.20;35.20;;;;;;5134713;27;20400;-52
2023/08/23 10:23:23;;;;;;;6.10;4.50;;;31.20;36.60;;;;;;5134706;27;20476;-56
2023/08/23 10:25:49;;;;;;;8.30;5.60;;;31.20;37.00;;;;;;5134270;27;20194;-53
2023/08/23 10:28:19;;;;;;;7.80;4.50;;;31.30;36.50;;;;;;5134659;27;20909;-51
2023/08/23 10:30:50;;;;;;;10.77;4.87;;;31.30;37.20;;;;;;5134402;27;20411;-52
2023/08/23 10:33:18;;;;;;;5.03;4.47;;;31.40;37.60;;;;;;5134307;27;20436;-58
2023/08/23 10:35:45;;;;;;;7.77;4.40;;;31.40;37.00;;;;;;5134065;27;20440;-52
2023/08/23 10:38:11;;;;;;;5.30;4.77;;;31.50;36.50;;;;;;5133699;27;20407;-52
2023/08/23 10:40:39;;;;;;;7.40;4.70;;;31.50;35.30;;;;;;5134504;27;20408;-55
2023/08/23 10:43:19;;;;;;;5.97;4.80;;;31.50;34.90;;;;;;5134628;27;20407;-52
2023/08/23 10:46:02;;;;;;;8.17;5.10;;;31.60;33.70;;;;;;5133844;27;20431;-57
2023/08/23 10:48:28;;;;;;;6.00;4.50;;;31.60;34.40;;;;;;5134340;27;20420;-52
2023/08/23 10:50:54;;;;;;;6.27;5.67;;;31.70;33.80;;;;;;5134162;27;20428;-54
2023/08/23 10:53:21;;;;;;;5.00;4.47;;;31.80;32.80;;;;;;5134133;27;20452;-56
2023/08/23 10:55:48;;;;;;;6.40;4.23;;;31.80;32.80;;;;;;5133788;27;20435;-52
2023/08/23 10:58:15;;;;;;;7.80;5.13;;;31.80;32.70;;;;;;5133830;27;20400;-52
2023/08/23 11:00:42;;;;;;;4.93;4.43;;;31.80;32.20;;;;;;5134193;27;20402;-56
2023/08/23 11:03:10;;;;;;;7.53;6.83;;;31.80;33.90;;;;;;5133807;27;20400;-51
2023/08/23 11:05:36;;;;;;;8.17;4.77;;;32.00;34.00;;;;;;5133489;27;20420;-53
2023/08/23 11:08:02;;;;;;;5.10;4.60;;;32.10;33.10;;;;;;5133783;27;20846;-53
2023/08/23 11:10:29;;;;;;;7.00;4.40;;;32.20;32.60;;;;;;5133758;27;20482;-56
2023/08/23 11:12:55;;;;;;;5.97;5.00;;;32.30;33.60;;;;;;5133594;27;20969;-52
2023/08/23 11:15:21;;;;;;;4.50;4.03;;;32.30;33.70;;;;;;5133377;27;20404;-50
2023/08/23 11:17:48;;;;;;;5.27;4.03;;;32.40;32.90;;;;;;5133615;27;20411;-52
2023/08/23 11:20:15;;;;;;;5.80;4.10;;;32.50;34.30;;;;;;5133675;27;20396;-57
2023/08/23 11:22:41;;;;;;;7.33;5.20;;;32.50;33.90;;;;;;5133846;27;20401;-52
2023/08/23 11:25:07;;;;;;;7.93;4.60;;;32.50;34.00;;;;;;5133222;27;20404;-56
2023/08/23 11:27:33;;;;;;;6.13;4.60;;;32.60;32.90;;;;;;5133308;27;20416;-52
2023/08/23 11:30:01;;;;;;;7.93;4.33;;;32.60;32.30;;;;;;5133314;27;20407;-52
2023/08/23 11:32:27;;;;;;;8.43;4.13;;;32.70;32.60;;;;;;5133463;27;20508;-53
2023/08/23 11:34:55;;;;;;;6.03;4.40;;;32.80;33.30;;;;;;5132906;27;20456;-52
2023/08/23 11:37:25;;;;;;;7.40;4.40;;;32.80;33.30;;;;;;5133211;27;20505;-55
2023/08/23 11:39:58;;;;;;;5.77;4.03;;;32.80;33.50;;;;;;5133164;27;20411;-52
2023/08/23 11:42:26;;;;;;;8.40;4.43;;;33.00;33.20;;;;;;5133467;27;20441;-57
2023/08/23 11:44:55;;;;;;;5.50;3.80;;;33.00;33.40;;;;;;5133193;27;20415;-54
2023/08/23 11:47:27;;;;;;;4.23;3.93;;;33.10;32.90;;;;;;5132930;27;20439;-53
2023/08/23 11:49:53;;;;;;;6.87;4.70;;;33.10;33.60;;;;;;5133217;27;20428;-57
2023/08/23 11:52:19;;;;;;;8.10;3.93;;;33.10;33.50;;;;;;5132872;27;20411;-53
2023/08/23 11:54:45;;;;;;;7.63;4.90;;;33.10;31.70;;;;;;5132722;27;20450;-51
2023/08/23 11:57:16;;;;;;;7.50;4.60;;;33.10;33.70;;;;;;5132884;27;20424;-54
2023/08/23 11:59:42;;;;;;;5.87;4.33;;;33.10;33.60;;;;;;5132963;27;20404;-53
2023/08/23 12:02:08;;;;;;;4.80;4.40;;;33.10;33.70;;;;;;5132781;27;20499;-52
2023/08/23 12:04:34;;;;;;;5.83;4.63;;;33.20;33.10;;;;;;5132665;27;20479;-52
2023/08/23 12:07:00;;;;;;;8.60;4.30;;;33.20;33.60;;;;;;5132730;28;20432;-52
2023/08/23 12:09:26;;;;;;;5.37;4.53;;;33.30;33.00;;;;;;5133088;27;20508;-55
2023/08/23 12:11:55;;;;;;;4.60;4.20;;;33.40;31.90;;;;;;5132726;28;20604;-53
2023/08/23 12:14:23;;;;;;;7.83;4.90;;;33.50;32.30;;;;;;5131252;28;20794;-55
2023/08/23 12:16:49;;;;;;;4.80;4.30;;;33.40;30.70;;;;;;5132796;28;20516;-52
2023/08/23 12:19:15;;;;;;;6.13;4.63;;;33.50;31.00;;;;;;5132718;27;20726;-55
2023/08/23 12:21:41;;;;;;;5.50;4.57;;;33.60;32.00;;;;;;5132618;28;20181;-52
2023/08/23 12:24:07;;;;;;;4.57;4.17;;;33.70;31.30;;;;;;5132493;28;20174;-57
2023/08/23 12:26:32;;;;;;;6.43;3.80;;;33.70;31.30;;;;;;5132663;27;20193;-57
2023/08/23 12:28:58;;;;;;;7.33;4.37;;;33.70;32.20;;;;;;5132652;28;20543;-53
2023/08/23 12:31:24;;;;;;;4.27;3.97;;;33.70;32.10;;;;;;5132620;27;20258;-57
2023/08/23 12:33:50;;;;;;;5.53;4.20;;;33.80;31.30;;;;;;5132467;28;20240;-52
2023/08/23 12:36:16;;;;;;;5.20;3.70;;;33.70;32.00;;;;;;5132175;28;20443;-55
2023/08/23 12:38:42;;;;;;;4.77;4.03;;;33.70;32.00;;;;;;5132902;27;20305;-53
2023/08/23 12:41:08;;;;;;;4.80;3.60;;;33.70;32.20;;;;;;5132621;27;20400;-52